Air Navigation Services of Czech Republic
Airport: LKNA Updated:  22.04.2021 18:00:26  UTC
 METAR LKNA 22.04. 18:00 ...
METAR LKNA 221800Z 33014KT CAVOK 07/M05 Q1019 NOSIG RMK BLU BLU=
 TAF LKNA 22.04. 17:00 ...
TAF LKNA 221700Z 2218/2318 33010KT CAVOK      TEMPO 2309/2316 30014G26KT 9999 BKN030=